createdAt,value
2022-11-13T00:01:12.323Z,9.80
2022-11-13T00:03:43.171Z,8.37
2022-11-13T00:06:13.629Z,10.10
2022-11-13T00:08:42.268Z,9.47
2022-11-13T00:11:12.684Z,10.60
2022-11-13T00:13:43.001Z,9.53
2022-11-13T00:16:14.007Z,9.30
2022-11-13T00:18:41.955Z,9.37
2022-11-13T00:21:12.961Z,9.33
2022-11-13T00:23:41.180Z,9.33
2022-11-13T00:26:11.233Z,9.30
2022-11-13T00:28:39.397Z,10.00
2022-11-13T00:31:10.303Z,9.40
2022-11-13T00:34:05.220Z,7.80
2022-11-13T00:36:28.280Z,8.93
2022-11-13T00:38:56.878Z,8.73
2022-11-13T00:41:25.465Z,8.37
2022-11-13T00:43:53.494Z,8.47
2022-11-13T00:46:22.795Z,7.60
2022-11-13T00:48:50.724Z,8.17
2022-11-13T00:51:19.929Z,7.90
2022-11-13T00:53:48.003Z,7.23
2022-11-13T00:56:16.026Z,8.20
2022-11-13T00:58:44.051Z,8.10
2022-11-13T01:01:14.449Z,8.10
2022-11-13T01:03:44.057Z,7.90
2022-11-13T01:06:15.322Z,7.23
2022-11-13T01:08:43.433Z,7.00
2022-11-13T01:11:12.938Z,7.47
2022-11-13T01:13:41.378Z,7.33
2022-11-13T01:16:11.525Z,6.87
2022-11-13T01:18:39.759Z,6.60
2022-11-13T01:21:12.608Z,7.30
2022-11-13T01:23:41.022Z,7.13
2022-11-13T01:26:13.106Z,6.47
2022-11-13T01:28:42.046Z,6.80
2022-11-13T01:31:12.119Z,7.57
2022-11-13T01:33:40.092Z,7.57
2022-11-13T01:36:12.839Z,7.47
2022-11-13T01:38:41.027Z,7.00
2022-11-13T01:41:13.821Z,6.30
2022-11-13T01:43:41.850Z,7.33
2022-11-13T01:46:19.420Z,6.87
2022-11-13T01:48:51.191Z,5.57
2022-11-13T01:51:27.232Z,6.60
2022-11-13T01:53:56.685Z,6.40
2022-11-13T01:56:25.095Z,7.30
2022-11-13T01:58:58.482Z,6.40
2022-11-13T02:01:26.566Z,6.30
2022-11-13T02:03:54.645Z,5.80
2022-11-13T02:06:24.610Z,7.17
2022-11-13T02:08:52.762Z,6.13
2022-11-13T02:11:21.638Z,6.37
2022-11-13T02:13:49.835Z,6.70
2022-11-13T02:16:18.860Z,5.50
2022-11-13T02:18:47.253Z,6.00
2022-11-13T02:21:28.391Z,5.70
2022-11-13T02:24:05.433Z,6.10
2022-11-13T02:26:35.719Z,6.77
2022-11-13T02:29:03.693Z,5.70
2022-11-13T02:31:31.725Z,6.57
2022-11-13T02:33:59.786Z,6.23
2022-11-13T02:36:29.626Z,5.97
2022-11-13T02:38:58.802Z,6.20
2022-11-13T02:41:26.814Z,6.17
2022-11-13T02:43:56.113Z,5.87
2022-11-13T02:46:24.059Z,6.00
2022-11-13T02:48:52.128Z,6.53
2022-11-13T02:51:20.084Z,6.20
2022-11-13T02:53:48.076Z,5.60
2022-11-13T02:56:16.191Z,5.00
2022-11-13T02:58:44.222Z,5.20
2022-11-13T03:01:13.532Z,5.93
2022-11-13T03:03:57.007Z,6.07
2022-11-13T03:06:25.696Z,5.73
2022-11-13T03:08:53.782Z,5.63
2022-11-13T03:11:21.728Z,6.43
2022-11-13T03:13:49.671Z,5.93
2022-11-13T03:16:19.196Z,5.20
2022-11-13T03:18:47.170Z,4.93
2022-11-13T03:21:16.721Z,5.50
2022-11-13T03:23:46.227Z,5.30
2022-11-13T03:26:16.498Z,5.37
2022-11-13T03:28:44.472Z,5.87
2022-11-13T03:31:13.550Z,6.40
2022-11-13T03:33:42.921Z,5.43
2022-11-13T03:36:10.994Z,5.53
2022-11-13T03:38:39.123Z,5.77
2022-11-13T03:41:07.329Z,5.53
2022-11-13T03:43:35.288Z,5.63
2022-11-13T03:46:03.371Z,4.93
2022-11-13T03:48:31.699Z,5.73
2022-11-13T03:51:01.753Z,6.20
2022-11-13T03:53:29.852Z,5.90
2022-11-13T03:55:57.828Z,5.60
2022-11-13T03:58:26.099Z,5.90
2022-11-13T04:00:56.441Z,4.53
2022-11-13T04:03:24.730Z,4.93
2022-11-13T04:05:52.776Z,4.83
2022-11-13T04:08:22.249Z,5.57
2022-11-13T04:10:50.293Z,5.20
2022-11-13T04:13:18.272Z,5.33
2022-11-13T04:15:46.358Z,5.33
2022-11-13T04:18:14.277Z,5.03
2022-11-13T04:20:42.219Z,4.67
2022-11-13T04:23:12.779Z,5.97
2022-11-13T04:25:42.152Z,5.17
2022-11-13T04:28:10.673Z,5.17
2022-11-13T04:30:39.056Z,4.80
2022-11-13T04:33:07.567Z,5.33
2022-11-13T04:35:35.681Z,4.60
2022-11-13T04:38:03.784Z,4.67
2022-11-13T04:40:31.782Z,5.27
2022-11-13T04:43:00.070Z,5.37
2022-11-13T04:45:28.544Z,4.53
2022-11-13T04:47:56.810Z,5.27
2022-11-13T04:50:24.944Z,4.97
2022-11-13T04:52:53.146Z,4.83
2022-11-13T04:55:21.446Z,4.97
2022-11-13T04:57:55.514Z,5.57
2022-11-13T05:00:25.419Z,5.00
2022-11-13T05:02:53.351Z,4.70
2022-11-13T05:05:21.678Z,5.10
2022-11-13T05:07:50.009Z,5.73
2022-11-13T05:10:18.085Z,6.00
2022-11-13T05:12:46.079Z,5.27
2022-11-13T05:15:14.029Z,5.83
2022-11-13T05:17:43.644Z,5.77
2022-11-13T05:20:12.726Z,5.17
2022-11-13T05:22:40.647Z,5.17
2022-11-13T05:25:09.449Z,5.90
2022-11-13T05:27:37.467Z,5.87
2022-11-13T05:30:06.206Z,6.03
2022-11-13T05:32:34.183Z,6.57
2022-11-13T05:35:03.588Z,5.50
2022-11-13T05:37:31.695Z,6.53
2022-11-13T05:39:59.609Z,6.50
2022-11-13T05:42:27.675Z,6.93
2022-11-13T05:44:55.607Z,6.57
2022-11-13T05:47:23.580Z,6.43
2022-11-13T05:49:52.147Z,6.97
2022-11-13T05:52:21.431Z,6.13
2022-11-13T05:54:49.379Z,6.00
2022-11-13T05:57:17.424Z,6.33
2022-11-13T05:59:45.487Z,6.17
2022-11-13T06:02:13.477Z,6.27
2022-11-13T06:04:41.567Z,6.43
2022-11-13T06:07:09.512Z,5.43
2022-11-13T06:09:38.857Z,6.43
2022-11-13T06:12:07.315Z,6.03
2022-11-13T06:14:35.279Z,5.23
2022-11-13T06:17:03.193Z,5.30
2022-11-13T06:19:31.267Z,5.37
2022-11-13T06:21:59.212Z,5.27
2022-11-13T06:24:27.174Z,5.73
2022-11-13T06:26:56.858Z,6.07
2022-11-13T06:29:24.766Z,6.17
2022-11-13T06:31:52.702Z,6.37
2022-11-13T06:34:20.806Z,6.03
2022-11-13T06:36:48.764Z,6.90
2022-11-13T06:39:16.813Z,7.30
2022-11-13T06:41:45.262Z,5.83
2022-11-13T06:44:14.608Z,6.93
2022-11-13T06:46:42.502Z,7.13
2022-11-13T06:49:10.479Z,6.73
2022-11-13T06:51:38.397Z,7.17
2022-11-13T06:54:06.544Z,7.30
2022-11-13T06:56:34.671Z,7.97
2022-11-13T06:59:07.629Z,7.63
2022-11-13T07:01:38.130Z,7.27
2022-11-13T07:04:06.368Z,7.00
2022-11-13T07:06:40.056Z,8.27
2022-11-13T07:09:08.515Z,7.97
2022-11-13T07:11:36.734Z,7.00
2022-11-13T07:14:06.416Z,7.90
2022-11-13T07:16:56.381Z,7.40
2022-11-13T07:19:23.745Z,7.03
2022-11-13T07:21:51.802Z,6.73
2022-11-13T07:24:19.737Z,7.47
2022-11-13T07:26:47.668Z,7.77
2022-11-13T07:29:16.970Z,7.00
2022-11-13T07:31:44.889Z,8.37
2022-11-13T07:34:12.807Z,6.63
2022-11-13T07:36:42.373Z,7.83
2022-11-13T07:39:10.640Z,7.83
2022-11-13T07:41:38.577Z,8.90
2022-11-13T07:44:09.406Z,7.77
2022-11-13T07:46:38.143Z,8.60
2022-11-13T07:49:06.443Z,8.57
2022-11-13T07:51:34.432Z,9.50
2022-11-13T07:54:03.971Z,10.77
2022-11-13T07:56:32.051Z,9.57
2022-11-13T07:59:00.533Z,9.47
2022-11-13T08:01:28.518Z,10.53
2022-11-13T08:03:57.078Z,9.30
2022-11-13T08:06:27.554Z,9.93
2022-11-13T08:08:55.634Z,9.50
2022-11-13T08:11:25.297Z,9.37
2022-11-13T08:13:53.747Z,11.03
2022-11-13T08:16:23.349Z,11.27
2022-11-13T08:18:51.612Z,11.47
2022-11-13T08:21:21.107Z,12.23
2022-11-13T08:23:50.265Z,10.10
2022-11-13T08:26:18.879Z,11.27
2022-11-13T08:28:48.347Z,10.37
2022-11-13T08:31:17.754Z,10.57
2022-11-13T08:33:45.987Z,11.10
2022-11-13T08:36:13.926Z,10.80
2022-11-13T08:38:41.934Z,11.03
2022-11-13T08:41:10.148Z,11.40
2022-11-13T08:43:38.095Z,11.87
2022-11-13T08:46:07.934Z,11.57
2022-11-13T08:48:36.548Z,11.37
2022-11-13T08:51:05.607Z,12.07
2022-11-13T08:53:33.539Z,11.27
2022-11-13T08:56:03.936Z,9.40
2022-11-13T08:58:32.315Z,10.67
2022-11-13T09:01:04.408Z,9.53
2022-11-13T09:03:36.142Z,9.53
2022-11-13T09:06:06.775Z,10.30
2022-11-13T09:08:34.730Z,9.93
2022-11-13T09:11:06.800Z,10.07
2022-11-13T09:13:39.817Z,9.50
2022-11-13T09:16:11.043Z,9.73
2022-11-13T09:18:40.380Z,8.90
2022-11-13T09:21:08.286Z,8.37
2022-11-13T09:23:36.335Z,9.47
2022-11-13T09:26:04.333Z,9.40
2022-11-13T09:28:32.350Z,9.23
2022-11-13T09:31:00.417Z,8.67
2022-11-13T09:33:28.387Z,9.70
2022-11-13T09:35:57.700Z,8.90
2022-11-13T09:38:25.897Z,9.67
2022-11-13T09:40:58.772Z,9.60
2022-11-13T09:43:40.477Z,12.27
2022-11-13T09:46:19.461Z,10.20
2022-11-13T09:48:52.365Z,9.90
2022-11-13T09:51:25.435Z,14.83
2022-11-13T09:53:54.017Z,10.40
2022-11-13T09:56:29.199Z,9.90
2022-11-13T09:59:07.596Z,10.47
2022-11-13T10:01:44.593Z,9.60
2022-11-13T10:04:16.191Z,9.50
2022-11-13T10:07:00.032Z,9.83
2022-11-13T10:09:38.337Z,10.30
2022-11-13T10:12:09.554Z,10.07
2022-11-13T10:14:46.049Z,10.23
2022-11-13T10:17:23.803Z,9.27
2022-11-13T10:19:58.343Z,10.47
2022-11-13T10:22:50.139Z,10.37
2022-11-13T10:25:27.747Z,10.47
2022-11-13T10:28:21.559Z,9.87
2022-11-13T10:30:55.217Z,9.20
2022-11-13T10:33:25.666Z,9.47
2022-11-13T10:35:59.447Z,9.20
2022-11-13T10:38:39.874Z,10.13
2022-11-13T10:41:13.848Z,10.13
2022-11-13T10:43:53.345Z,9.57
2022-11-13T10:46:24.673Z,10.00
2022-11-13T10:48:58.308Z,10.00
2022-11-13T10:51:29.036Z,10.13
2022-11-13T10:53:59.860Z,10.37
2022-11-13T10:56:29.705Z,9.83
2022-11-13T10:59:08.112Z,11.40
2022-11-13T11:01:41.507Z,9.47
2022-11-13T11:04:14.610Z,11.10
2022-11-13T11:09:43.158Z,9.77
2022-11-13T11:12:21.273Z,11.18
2022-11-13T11:15:21.168Z,10.27
2022-11-13T11:17:58.124Z,10.75
2022-11-13T11:20:43.956Z,11.65
2022-11-13T11:23:25.032Z,10.70
2022-11-13T11:25:59.680Z,9.23
2022-11-13T11:28:34.078Z,10.18
2022-11-13T11:31:12.734Z,10.73
2022-11-13T11:33:56.395Z,9.20
2022-11-13T11:36:51.534Z,10.65
2022-11-13T11:40:02.728Z,9.55
2022-11-13T11:43:29.853Z,9.07
2022-11-13T11:46:46.516Z,9.07
2022-11-13T11:57:11.564Z,10.93
2022-11-13T12:00:09.346Z,8.05
2022-11-13T12:03:46.496Z,9.38
2022-11-13T12:09:48.374Z,8.35
2022-11-13T12:12:38.645Z,9.30
2022-11-13T12:15:19.430Z,8.60
2022-11-13T12:17:59.648Z,7.68
2022-11-13T12:20:57.319Z,7.57
2022-11-13T12:23:57.557Z,8.45
2022-11-13T12:26:30.388Z,8.27
2022-11-13T12:29:15.575Z,8.18
2022-11-13T12:32:00.649Z,7.07
2022-11-13T12:34:43.822Z,6.55
2022-11-13T12:37:22.400Z,7.72
2022-11-13T12:40:08.119Z,7.10
2022-11-13T12:42:59.172Z,7.03
2022-11-13T12:49:25.557Z,7.03
2022-11-13T12:52:29.451Z,6.32
2022-11-13T12:55:41.084Z,5.95
2022-11-13T12:58:19.320Z,7.13
2022-11-13T13:00:58.924Z,9.13
2022-11-13T13:04:01.832Z,11.30
2022-11-13T13:09:48.578Z,11.98
2022-11-13T13:12:31.059Z,9.73
2022-11-13T13:15:26.769Z,12.43
2022-11-13T13:18:29.289Z,12.05
2022-11-13T13:21:08.778Z,10.35
2022-11-13T13:23:48.682Z,11.40
2022-11-13T13:26:53.395Z,11.48
2022-11-13T13:36:22.606Z,12.90
2022-11-13T13:42:12.852Z,9.85
2022-11-13T13:45:05.433Z,9.55
2022-11-13T13:48:06.866Z,9.23
2022-11-13T13:51:01.244Z,8.60
2022-11-13T13:54:04.015Z,8.18
2022-11-13T13:59:45.157Z,7.57
2022-11-13T14:05:32.750Z,6.88
2022-11-13T14:08:30.853Z,7.68
2022-11-13T14:11:27.105Z,7.63
2022-11-13T14:14:14.802Z,7.70
2022-11-13T14:16:57.315Z,7.25
2022-11-13T14:19:30.981Z,7.05
2022-11-13T14:22:07.835Z,7.82
2022-11-13T14:24:55.395Z,7.18
2022-11-13T14:27:31.190Z,7.05
2022-11-13T14:30:09.955Z,7.15
2022-11-13T14:32:46.937Z,7.35
2022-11-13T14:35:23.122Z,7.82
2022-11-13T14:37:54.710Z,7.10
2022-11-13T14:40:29.192Z,7.40
2022-11-13T14:43:00.085Z,7.82
2022-11-13T14:45:35.079Z,7.63
2022-11-13T14:48:23.590Z,7.55
2022-11-13T14:51:24.863Z,7.45
2022-11-13T14:55:13.813Z,6.35
2022-11-13T14:58:14.620Z,7.88
2022-11-13T15:01:01.881Z,7.35
2022-11-13T15:03:45.179Z,7.88
2022-11-13T15:06:18.744Z,7.10
2022-11-13T15:08:49.092Z,7.13
2022-11-13T15:11:18.606Z,8.18
2022-11-13T15:13:47.296Z,7.57
2022-11-13T15:16:17.796Z,6.93
2022-11-13T15:18:52.702Z,7.35
2022-11-13T15:21:20.963Z,7.25
2022-11-13T15:23:49.449Z,7.35
2022-11-13T15:26:18.450Z,8.15
2022-11-13T15:28:46.709Z,7.93
2022-11-13T15:31:20.549Z,8.18
2022-11-13T15:33:50.274Z,8.93
2022-11-13T15:36:18.316Z,7.93
2022-11-13T15:38:46.478Z,6.93
2022-11-13T15:41:16.747Z,7.45
2022-11-13T15:43:49.041Z,9.02
2022-11-13T15:46:18.769Z,11.25
2022-11-13T15:48:47.511Z,8.75
2022-11-13T15:51:22.580Z,8.80
2022-11-13T15:53:54.451Z,8.98
2022-11-13T15:56:23.065Z,9.65
2022-11-13T15:58:51.339Z,9.63
2022-11-13T16:01:20.448Z,9.10
2022-11-13T16:03:48.650Z,8.90
2022-11-13T16:06:23.353Z,9.10
2022-11-13T16:08:51.406Z,9.93
2022-11-13T16:11:21.025Z,8.90
2022-11-13T16:13:49.084Z,10.17
2022-11-13T16:16:20.632Z,8.73
2022-11-13T16:18:50.201Z,10.53
2022-11-13T16:21:21.280Z,11.17
2022-11-13T16:23:49.366Z,10.67
2022-11-13T16:26:21.788Z,11.03
2022-11-13T16:29:12.724Z,9.60
2022-11-13T16:31:41.620Z,12.20
2022-11-13T16:34:10.480Z,10.70
2022-11-13T16:36:40.275Z,11.27
2022-11-13T16:39:13.059Z,10.63
2022-11-13T16:41:41.147Z,11.77
2022-11-13T16:44:09.596Z,12.53
2022-11-13T16:46:42.346Z,12.10
2022-11-13T16:49:18.813Z,13.47
2022-11-13T16:51:48.352Z,13.50
2022-11-13T16:54:16.926Z,12.50
2022-11-13T16:56:48.075Z,13.37
2022-11-13T16:59:16.782Z,13.13
2022-11-13T17:01:45.032Z,14.00
2022-11-13T17:04:15.608Z,14.17
2022-11-13T17:06:44.063Z,15.00
2022-11-13T17:09:14.060Z,14.33
2022-11-13T17:11:44.185Z,16.43
2022-11-13T17:14:12.968Z,16.13
2022-11-13T17:16:41.537Z,15.10
2022-11-13T17:19:15.345Z,17.13
2022-11-13T17:21:44.565Z,16.23
2022-11-13T17:24:14.092Z,16.70
2022-11-13T17:26:42.183Z,17.27
2022-11-13T17:29:10.216Z,15.70
2022-11-13T17:31:38.334Z,17.67
2022-11-13T17:34:06.595Z,18.47
2022-11-13T17:36:34.687Z,19.20
2022-11-13T17:39:02.930Z,18.67
2022-11-13T17:41:32.433Z,21.17
2022-11-13T17:44:01.683Z,19.67
2022-11-13T17:46:29.769Z,19.60
2022-11-13T17:48:58.024Z,18.80
2022-11-13T17:51:26.101Z,18.17
2022-11-13T17:53:54.411Z,19.73
2022-11-13T17:56:23.125Z,20.57
2022-11-13T17:58:52.675Z,19.83
2022-11-13T18:01:22.637Z,19.80
2022-11-13T18:03:56.218Z,19.07
2022-11-13T18:06:25.285Z,21.30
2022-11-13T18:08:53.356Z,18.43
2022-11-13T18:11:23.783Z,18.20
2022-11-13T18:13:53.793Z,18.83
2022-11-13T18:16:24.266Z,17.57
2022-11-13T18:18:55.266Z,18.47
2022-11-13T18:21:25.747Z,18.63
2022-11-13T18:23:59.998Z,19.40
2022-11-13T18:26:29.248Z,19.00
2022-11-13T18:28:59.455Z,17.57
2022-11-13T18:31:27.881Z,17.90
2022-11-13T18:33:57.152Z,17.07
2022-11-13T18:36:26.410Z,16.70
2022-11-13T18:38:55.164Z,16.20
2022-11-13T18:41:24.114Z,16.60
2022-11-13T18:43:55.516Z,15.23
2022-11-13T18:46:25.193Z,14.53
2022-11-13T18:48:53.245Z,16.37
2022-11-13T18:51:23.108Z,15.83
2022-11-13T18:53:53.033Z,16.37
2022-11-13T18:56:23.378Z,17.00
2022-11-13T18:58:52.931Z,15.83
2022-11-13T19:01:23.209Z,17.40
2022-11-13T19:04:22.427Z,15.40
2022-11-13T19:06:41.581Z,14.97
2022-11-13T19:09:12.896Z,14.10
2022-11-13T19:11:41.124Z,14.10
2022-11-13T19:14:09.880Z,13.73
2022-11-13T19:16:39.472Z,14.40
2022-11-13T19:19:15.288Z,14.37
2022-11-13T19:21:43.364Z,14.57
2022-11-13T19:24:14.445Z,13.93
2022-11-13T19:26:43.040Z,13.47
2022-11-13T19:29:11.623Z,13.67
2022-11-13T19:31:39.782Z,13.03
2022-11-13T19:34:09.539Z,13.13
2022-11-13T19:36:40.958Z,12.57
2022-11-13T19:39:10.305Z,14.83
2022-11-13T19:41:38.298Z,11.63
2022-11-13T19:44:06.791Z,12.53
2022-11-13T19:46:34.827Z,12.07
2022-11-13T19:49:02.988Z,12.90
2022-11-13T19:51:32.674Z,12.77
2022-11-13T19:54:01.227Z,12.47
2022-11-13T19:56:30.080Z,13.80
2022-11-13T19:58:58.567Z,14.03
2022-11-13T20:01:28.027Z,13.30
2022-11-13T20:03:57.165Z,13.40
2022-11-13T20:06:25.993Z,13.10
2022-11-13T20:08:55.629Z,14.07
2022-11-13T20:11:23.746Z,14.37
2022-11-13T20:13:51.986Z,14.63
2022-11-13T20:16:23.523Z,14.90
2022-11-13T20:18:52.776Z,16.13
2022-11-13T20:21:25.325Z,15.73
2022-11-13T20:23:56.439Z,16.43
2022-11-13T20:26:24.431Z,15.53
2022-11-13T20:28:52.439Z,17.37
2022-11-13T20:31:22.290Z,16.90
2022-11-13T20:33:52.316Z,17.87
2022-11-13T20:36:20.675Z,17.17
2022-11-13T20:38:51.611Z,18.57
2022-11-13T20:41:21.610Z,17.60
2022-11-13T20:43:49.997Z,19.93
2022-11-13T20:46:20.301Z,17.57
2022-11-13T20:48:48.610Z,17.60
2022-11-13T20:51:19.382Z,18.90
2022-11-13T20:53:48.792Z,18.83
2022-11-13T20:56:18.601Z,18.80
2022-11-13T20:58:48.312Z,19.17
2022-11-13T21:01:18.069Z,17.40
2022-11-13T21:03:47.002Z,19.40
2022-11-13T21:06:18.076Z,19.23
2022-11-13T21:08:47.205Z,18.73
2022-11-13T21:11:18.981Z,19.03
2022-11-13T21:13:49.320Z,19.33
2022-11-13T21:16:18.157Z,20.70
2022-11-13T21:18:46.596Z,18.13
2022-11-13T21:21:17.078Z,20.20
2022-11-13T21:23:45.176Z,19.03
2022-11-13T21:26:14.758Z,22.27
2022-11-13T21:28:42.784Z,22.27
2022-11-13T21:31:16.464Z,20.93
2022-11-13T21:33:45.858Z,19.77
2022-11-13T21:36:15.511Z,20.73
2022-11-13T21:38:44.506Z,21.20
2022-11-13T21:41:24.679Z,21.57
2022-11-13T21:43:56.960Z,21.30
2022-11-13T21:46:29.155Z,21.70
2022-11-13T21:48:59.683Z,21.00
2022-11-13T21:51:28.091Z,20.47
2022-11-13T21:53:56.282Z,20.53
2022-11-13T21:56:25.368Z,21.27
2022-11-13T21:58:53.681Z,20.60
2022-11-13T22:01:23.602Z,22.17
2022-11-13T22:03:53.858Z,22.63
2022-11-13T22:06:24.252Z,21.67
2022-11-13T22:08:56.976Z,22.73
2022-11-13T22:11:25.832Z,21.87
2022-11-13T22:13:54.348Z,20.70
2022-11-13T22:16:22.845Z,21.03
2022-11-13T22:18:55.450Z,20.50
2022-11-13T22:21:25.136Z,20.50
2022-11-13T22:23:53.342Z,21.57
2022-11-13T22:26:22.760Z,18.83
2022-11-13T22:28:51.756Z,20.33
2022-11-13T22:31:21.634Z,21.63
2022-11-13T22:33:54.410Z,22.87
2022-11-13T22:36:27.327Z,19.77
2022-11-13T22:38:55.657Z,20.83
2022-11-13T22:41:25.558Z,21.50
2022-11-13T22:43:55.892Z,20.77
2022-11-13T22:46:26.351Z,20.53
2022-11-13T22:48:55.996Z,23.03
2022-11-13T22:51:26.938Z,21.83
2022-11-13T22:53:56.448Z,22.13
2022-11-13T22:56:26.657Z,22.80
2022-11-13T22:58:55.295Z,21.43
2022-11-13T23:01:25.207Z,22.30
2022-11-13T23:03:54.121Z,21.83
2022-11-13T23:06:24.359Z,20.63
2022-11-13T23:08:54.109Z,19.47
2022-11-13T23:11:23.484Z,21.03
2022-11-13T23:13:55.138Z,21.03
2022-11-13T23:16:24.445Z,20.57
2022-11-13T23:18:54.749Z,22.80
2022-11-13T23:21:23.770Z,22.57
2022-11-13T23:23:53.294Z,23.80
2022-11-13T23:26:21.951Z,20.90
2022-11-13T23:28:50.252Z,22.37
2022-11-13T23:31:18.448Z,22.87
2022-11-13T23:33:46.648Z,22.70
2022-11-13T23:36:15.492Z,21.33
2022-11-13T23:38:43.839Z,21.83
2022-11-13T23:41:13.667Z,23.40
2022-11-13T23:46:30.035Z,21.60
2022-11-13T23:48:58.131Z,21.23
2022-11-13T23:51:26.132Z,22.20
2022-11-13T23:53:54.132Z,21.33
2022-11-13T23:56:23.565Z,21.80
2022-11-13T23:58:53.203Z,20.20
